sensor_id;sensor_type;location;lat;lon;timestamp;pressure;altitude;pressure_sealevel;temperature;humidity
40245;BME280;25963;42.694;23.600;2023-06-04T00:02:12;95312.56;;;16.27;100.00
40245;BME280;25963;42.694;23.600;2023-06-04T00:04:37;95336.53;;;16.27;100.00
40245;BME280;25963;42.694;23.600;2023-06-04T00:07:03;95338.31;;;16.43;100.00
40245;BME280;25963;42.694;23.600;2023-06-04T00:09:45;95320.88;;;16.09;100.00
40245;BME280;25963;42.694;23.600;2023-06-04T00:12:21;95328.38;;;16.12;100.00
40245;BME280;25963;42.694;23.600;2023-06-04T00:14:46;95328.13;;;16.13;100.00
40245;BME280;25963;42.694;23.600;2023-06-04T00:17:28;95317.31;;;15.98;100.00
40245;BME280;25963;42.694;23.600;2023-06-04T00:19:53;95341.84;;;16.27;100.00
40245;BME280;25963;42.694;23.600;2023-06-04T00:22:19;95324.91;;;15.89;100.00
40245;BME280;25963;42.694;23.600;2023-06-04T00:24:47;95315.66;;;15.75;100.00
40245;BME280;25963;42.694;23.600;2023-06-04T00:27:12;95339.50;;;15.87;100.00
40245;BME280;25963;42.694;23.600;2023-06-04T00:29:38;95315.75;;;15.63;100.00
40245;BME280;25963;42.694;23.600;2023-06-04T00:32:03;95327.44;;;15.62;100.00
40245;BME280;25963;42.694;23.600;2023-06-04T00:34:29;95327.44;;;16.01;100.00
40245;BME280;25963;42.694;23.600;2023-06-04T00:36:57;95311.47;;;15.79;100.00
40245;BME280;25963;42.694;23.600;2023-06-04T00:39:32;95316.78;;;15.79;100.00
40245;BME280;25963;42.694;23.600;2023-06-04T00:45:30;95309.66;;;15.85;100.00
40245;BME280;25963;42.694;23.600;2023-06-04T00:48:24;95327.25;;;16.08;100.00
40245;BME280;25963;42.694;23.600;2023-06-04T00:51:13;95286.66;;;16.17;100.00
40245;BME280;25963;42.694;23.600;2023-06-04T00:53:38;95315.06;;;16.12;100.00
40245;BME280;25963;42.694;23.600;2023-06-04T00:56:26;95272.19;;;15.86;100.00
40245;BME280;25963;42.694;23.600;2023-06-04T00:59:13;95291.69;;;16.14;100.00
40245;BME280;25963;42.694;23.600;2023-06-04T01:04:27;95318.34;;;15.97;100.00
40245;BME280;25963;42.694;23.600;2023-06-04T01:06:56;95319.28;;;16.08;100.00
40245;BME280;25963;42.694;23.600;2023-06-04T01:09:35;95319.50;;;15.84;100.00
40245;BME280;25963;42.694;23.600;2023-06-04T01:12:08;95327.56;;;15.89;100.00
40245;BME280;25963;42.694;23.600;2023-06-04T01:17:39;95313.13;;;15.85;100.00
40245;BME280;25963;42.694;23.600;2023-06-04T01:20:17;95317.34;;;15.81;100.00
40245;BME280;25963;42.694;23.600;2023-06-04T01:25:35;95325.22;;;15.93;100.00
40245;BME280;25963;42.694;23.600;2023-06-04T01:28:31;95282.66;;;15.71;100.00
40245;BME280;25963;42.694;23.600;2023-06-04T01:31:04;95333.66;;;16.07;100.00
40245;BME280;25963;42.694;23.600;2023-06-04T01:33:53;95332.09;;;16.11;100.00
40245;BME280;25963;42.694;23.600;2023-06-04T01:36:38;95322.38;;;16.00;100.00
40245;BME280;25963;42.694;23.600;2023-06-04T01:39:06;95321.25;;;15.95;100.00
40245;BME280;25963;42.694;23.600;2023-06-04T01:41:47;95304.03;;;16.03;100.00
40245;BME280;25963;42.694;23.600;2023-06-04T01:44:21;95330.09;;;16.23;100.00
40245;BME280;25963;42.694;23.600;2023-06-04T01:46:47;95301.28;;;15.93;100.00
40245;BME280;25963;42.694;23.600;2023-06-04T01:49:15;95313.88;;;15.64;100.00
40245;BME280;25963;42.694;23.600;2023-06-04T01:51:40;95324.22;;;15.77;100.00
40245;BME280;25963;42.694;23.600;2023-06-04T01:54:06;95327.06;;;15.92;100.00
40245;BME280;25963;42.694;23.600;2023-06-04T01:56:42;95310.25;;;15.87;100.00
40245;BME280;25963;42.694;23.600;2023-06-04T01:59:07;95338.81;;;15.96;100.00
40245;BME280;25963;42.694;23.600;2023-06-04T02:01:51;95327.75;;;15.83;100.00
40245;BME280;25963;42.694;23.600;2023-06-04T02:04:25;95340.88;;;16.11;100.00
40245;BME280;25963;42.694;23.600;2023-06-04T02:06:57;95328.69;;;16.37;100.00
40245;BME280;25963;42.694;23.600;2023-06-04T02:09:25;95341.06;;;16.49;100.00
40245;BME280;25963;42.694;23.600;2023-06-04T02:12:01;95296.75;;;15.93;100.00
40245;BME280;25963;42.694;23.600;2023-06-04T02:14:27;95360.81;;;16.31;100.00
40245;BME280;25963;42.694;23.600;2023-06-04T02:16:58;95353.44;;;16.16;100.00
40245;BME280;25963;42.694;23.600;2023-06-04T02:19:46;95353.91;;;16.57;100.00
40245;BME280;25963;42.694;23.600;2023-06-04T02:22:16;95339.31;;;16.37;100.00
40245;BME280;25963;42.694;23.600;2023-06-04T02:24:41;95342.91;;;16.26;100.00
40245;BME280;25963;42.694;23.600;2023-06-04T02:27:33;95317.53;;;15.96;100.00
40245;BME280;25963;42.694;23.600;2023-06-04T02:29:59;95354.66;;;16.30;100.00
40245;BME280;25963;42.694;23.600;2023-06-04T02:32:42;95349.91;;;16.32;100.00
40245;BME280;25963;42.694;23.600;2023-06-04T02:35:09;95349.28;;;16.47;100.00
40245;BME280;25963;42.694;23.600;2023-06-04T02:37:35;95361.78;;;16.47;100.00
40245;BME280;25963;42.694;23.600;2023-06-04T02:40:01;95363.88;;;16.44;100.00
40245;BME280;25963;42.694;23.600;2023-06-04T02:45:34;95346.88;;;16.02;100.00
40245;BME280;25963;42.694;23.600;2023-06-04T02:48:00;95358.88;;;16.26;100.00
40245;BME280;25963;42.694;23.600;2023-06-04T02:50:53;95369.59;;;16.53;100.00
40245;BME280;25963;42.694;23.600;2023-06-04T02:53:20;95353.31;;;16.50;100.00
40245;BME280;25963;42.694;23.600;2023-06-04T02:55:46;95375.66;;;16.49;100.00
40245;BME280;25963;42.694;23.600;2023-06-04T02:58:35;95380.00;;;16.55;100.00
40245;BME280;25963;42.694;23.600;2023-06-04T03:01:04;95363.34;;;16.42;100.00
40245;BME280;25963;42.694;23.600;2023-06-04T03:03:29;95382.53;;;16.44;100.00
40245;BME280;25963;42.694;23.600;2023-06-04T03:05:56;95375.97;;;16.30;100.00
40245;BME280;25963;42.694;23.600;2023-06-04T03:08:28;95363.53;;;16.14;100.00
40245;BME280;25963;42.694;23.600;2023-06-04T03:10:53;95391.56;;;16.43;100.00
40245;BME280;25963;42.694;23.600;2023-06-04T03:13:18;95364.97;;;16.22;100.00
40245;BME280;25963;42.694;23.600;2023-06-04T03:15:47;95379.06;;;16.22;100.00
40245;BME280;25963;42.694;23.600;2023-06-04T03:18:29;95362.66;;;16.08;100.00
40245;BME280;25963;42.694;23.600;2023-06-04T03:20:55;95369.59;;;16.31;100.00
40245;BME280;25963;42.694;23.600;2023-06-04T03:23:21;95370.06;;;16.06;100.00
40245;BME280;25963;42.694;23.600;2023-06-04T03:26:15;95404.69;;;16.28;100.00
40245;BME280;25963;42.694;23.600;2023-06-04T03:28:41;95383.09;;;16.25;100.00
40245;BME280;25963;42.694;23.600;2023-06-04T03:31:30;95383.16;;;16.30;100.00
40245;BME280;25963;42.694;23.600;2023-06-04T03:33:57;95373.19;;;16.20;100.00
40245;BME280;25963;42.694;23.600;2023-06-04T03:36:26;95388.34;;;16.41;100.00
40245;BME280;25963;42.694;23.600;2023-06-04T03:38:57;95416.03;;;16.40;100.00
40245;BME280;25963;42.694;23.600;2023-06-04T03:44:16;95398.97;;;16.36;100.00
40245;BME280;25963;42.694;23.600;2023-06-04T03:46:45;95391.66;;;16.49;100.00
40245;BME280;25963;42.694;23.600;2023-06-04T03:49:13;95416.66;;;16.70;100.00
40245;BME280;25963;42.694;23.600;2023-06-04T03:54:32;95383.25;;;16.62;100.00
40245;BME280;25963;42.694;23.600;2023-06-04T03:57:00;95412.06;;;16.87;100.00
40245;BME280;25963;42.694;23.600;2023-06-04T03:59:30;95428.25;;;17.07;100.00
40245;BME280;25963;42.694;23.600;2023-06-04T04:05:14;95418.22;;;16.87;100.00
40245;BME280;25963;42.694;23.600;2023-06-04T04:07:40;95423.34;;;16.94;100.00
40245;BME280;25963;42.694;23.600;2023-06-04T04:10:06;95418.66;;;16.57;100.00
40245;BME280;25963;42.694;23.600;2023-06-04T04:12:31;95437.63;;;16.66;100.00
40245;BME280;25963;42.694;23.600;2023-06-04T04:14:57;95430.19;;;16.68;100.00
40245;BME280;25963;42.694;23.600;2023-06-04T04:17:25;95415.13;;;16.52;100.00
40245;BME280;25963;42.694;23.600;2023-06-04T04:20:13;95417.06;;;16.78;100.00
40245;BME280;25963;42.694;23.600;2023-06-04T04:22:42;95389.34;;;16.79;100.00
40245;BME280;25963;42.694;23.600;2023-06-04T04:25:10;95410.47;;;16.86;100.00
40245;BME280;25963;42.694;23.600;2023-06-04T04:28:01;95451.59;;;17.22;100.00
40245;BME280;25963;42.694;23.600;2023-06-04T04:30:27;95420.75;;;17.04;100.00
40245;BME280;25963;42.694;23.600;2023-06-04T04:32:53;95433.00;;;17.27;100.00
40245;BME280;25963;42.694;23.600;2023-06-04T04:35:19;95436.50;;;17.33;100.00
40245;BME280;25963;42.694;23.600;2023-06-04T04:37:45;95415.75;;;17.40;100.00
40245;BME280;25963;42.694;23.600;2023-06-04T04:40:10;95437.78;;;17.57;100.00
40245;BME280;25963;42.694;23.600;2023-06-04T04:42:37;95447.84;;;17.77;100.00
40245;BME280;25963;42.694;23.600;2023-06-04T04:48:50;95432.22;;;17.59;100.00
40245;BME280;25963;42.694;23.600;2023-06-04T04:51:25;95452.03;;;17.73;100.00
40245;BME280;25963;42.694;23.600;2023-06-04T04:54:03;95418.03;;;17.58;100.00
40245;BME280;25963;42.694;23.600;2023-06-04T04:56:33;95403.84;;;17.48;100.00
40245;BME280;25963;42.694;23.600;2023-06-04T05:02:24;95448.16;;;17.54;100.00
40245;BME280;25963;42.694;23.600;2023-06-04T05:04:59;95452.09;;;17.46;100.00
40245;BME280;25963;42.694;23.600;2023-06-04T05:07:24;95433.41;;;17.41;100.00
40245;BME280;25963;42.694;23.600;2023-06-04T05:09:50;95454.47;;;17.43;100.00
40245;BME280;25963;42.694;23.600;2023-06-04T05:12:15;95435.38;;;17.56;100.00
40245;BME280;25963;42.694;23.600;2023-06-04T05:14:41;95437.00;;;17.57;100.00
40245;BME280;25963;42.694;23.600;2023-06-04T05:17:07;95443.91;;;17.58;100.00
40245;BME280;25963;42.694;23.600;2023-06-04T05:20:05;95462.09;;;17.93;100.00
40245;BME280;25963;42.694;23.600;2023-06-04T05:22:37;95452.22;;;17.94;100.00
40245;BME280;25963;42.694;23.600;2023-06-04T05:25:03;95450.34;;;17.89;100.00
40245;BME280;25963;42.694;23.600;2023-06-04T05:27:35;95416.84;;;17.71;100.00
40245;BME280;25963;42.694;23.600;2023-06-04T05:30:04;95419.88;;;17.85;100.00
40245;BME280;25963;42.694;23.600;2023-06-04T05:32:42;95420.41;;;17.55;100.00
40245;BME280;25963;42.694;23.600;2023-06-04T05:35:08;95450.03;;;17.86;100.00
40245;BME280;25963;42.694;23.600;2023-06-04T05:37:35;95422.38;;;17.32;100.00
40245;BME280;25963;42.694;23.600;2023-06-04T05:40:03;95417.56;;;17.29;100.00
40245;BME280;25963;42.694;23.600;2023-06-04T05:42:30;95423.25;;;17.38;100.00
40245;BME280;25963;42.694;23.600;2023-06-04T05:45:02;95460.13;;;17.78;100.00
40245;BME280;25963;42.694;23.600;2023-06-04T05:47:31;95479.81;;;18.05;100.00
40245;BME280;25963;42.694;23.600;2023-06-04T05:50:27;95424.56;;;17.73;100.00
40245;BME280;25963;42.694;23.600;2023-06-04T05:53:21;95487.53;;;18.01;100.00
40245;BME280;25963;42.694;23.600;2023-06-04T05:55:47;95440.00;;;17.66;100.00
40245;BME280;25963;42.694;23.600;2023-06-04T05:58:51;95467.19;;;17.95;100.00
40245;BME280;25963;42.694;23.600;2023-06-04T06:01:17;95480.66;;;18.10;100.00
40245;BME280;25963;42.694;23.600;2023-06-04T06:03:52;95464.03;;;17.98;100.00
40245;BME280;25963;42.694;23.600;2023-06-04T06:06:36;95457.22;;;18.22;100.00
40245;BME280;25963;42.694;23.600;2023-06-04T06:09:07;95496.38;;;18.49;100.00
40245;BME280;25963;42.694;23.600;2023-06-04T06:11:34;95495.28;;;18.45;100.00
40245;BME280;25963;42.694;23.600;2023-06-04T06:13:59;95483.03;;;18.54;100.00
40245;BME280;25963;42.694;23.600;2023-06-04T06:16:25;95476.06;;;18.43;100.00
40245;BME280;25963;42.694;23.600;2023-06-04T06:18:50;95514.75;;;18.83;100.00
40245;BME280;25963;42.694;23.600;2023-06-04T06:21:16;95519.56;;;18.86;100.00
40245;BME280;25963;42.694;23.600;2023-06-04T06:23:42;95495.00;;;18.99;100.00
40245;BME280;25963;42.694;23.600;2023-06-04T06:26:07;95499.31;;;19.05;100.00
40245;BME280;25963;42.694;23.600;2023-06-04T06:28:33;95509.44;;;18.93;100.00
40245;BME280;25963;42.694;23.600;2023-06-04T06:30:59;95507.56;;;18.88;100.00
40245;BME280;25963;42.694;23.600;2023-06-04T06:33:29;95515.94;;;19.23;100.00
40245;BME280;25963;42.694;23.600;2023-06-04T06:35:54;95518.94;;;19.31;100.00
40245;BME280;25963;42.694;23.600;2023-06-04T06:38:20;95534.69;;;19.23;100.00
40245;BME280;25963;42.694;23.600;2023-06-04T06:40:45;95519.16;;;19.20;100.00
40245;BME280;25963;42.694;23.600;2023-06-04T06:43:11;95508.97;;;19.11;100.00
40245;BME280;25963;42.694;23.600;2023-06-04T06:45:36;95513.00;;;19.19;100.00
40245;BME280;25963;42.694;23.600;2023-06-04T06:48:02;95498.63;;;19.35;100.00
40245;BME280;25963;42.694;23.600;2023-06-04T06:50:28;95531.56;;;19.56;100.00
40245;BME280;25963;42.694;23.600;2023-06-04T06:52:53;95525.72;;;19.70;100.00
40245;BME280;25963;42.694;23.600;2023-06-04T06:55:19;95523.59;;;19.97;100.00
40245;BME280;25963;42.694;23.600;2023-06-04T06:57:45;95519.34;;;20.01;100.00
40245;BME280;25963;42.694;23.600;2023-06-04T07:00:11;95538.59;;;20.24;100.00
40245;BME280;25963;42.694;23.600;2023-06-04T07:02:36;95521.97;;;20.42;100.00
40245;BME280;25963;42.694;23.600;2023-06-04T07:05:02;95533.78;;;20.26;100.00
40245;BME280;25963;42.694;23.600;2023-06-04T07:07:28;95514.22;;;20.20;100.00
40245;BME280;25963;42.694;23.600;2023-06-04T07:09:53;95528.13;;;20.27;100.00
40245;BME280;25963;42.694;23.600;2023-06-04T07:12:19;95531.59;;;20.48;100.00
40245;BME280;25963;42.694;23.600;2023-06-04T07:14:54;95546.38;;;20.41;100.00
40245;BME280;25963;42.694;23.600;2023-06-04T07:17:19;95530.31;;;20.25;100.00
40245;BME280;25963;42.694;23.600;2023-06-04T07:19:45;95541.78;;;19.80;100.00
40245;BME280;25963;42.694;23.600;2023-06-04T07:22:25;95516.91;;;19.95;100.00
40245;BME280;25963;42.694;23.600;2023-06-04T07:24:51;95544.47;;;20.36;100.00
40245;BME280;25963;42.694;23.600;2023-06-04T07:27:17;95534.31;;;20.38;100.00
40245;BME280;25963;42.694;23.600;2023-06-04T07:29:45;95531.38;;;20.14;100.00
40245;BME280;25963;42.694;23.600;2023-06-04T07:32:30;95567.00;;;20.40;100.00
40245;BME280;25963;42.694;23.600;2023-06-04T07:34:55;95532.19;;;20.15;100.00
40245;BME280;25963;42.694;23.600;2023-06-04T07:37:23;95552.00;;;20.34;100.00
40245;BME280;25963;42.694;23.600;2023-06-04T07:40:00;95549.56;;;20.48;100.00
40245;BME280;25963;42.694;23.600;2023-06-04T07:42:26;95533.22;;;20.44;100.00
40245;BME280;25963;42.694;23.600;2023-06-04T07:45:00;95533.47;;;20.48;100.00
40245;BME280;25963;42.694;23.600;2023-06-04T07:47:32;95556.25;;;20.71;100.00
40245;BME280;25963;42.694;23.600;2023-06-04T07:50:07;95555.19;;;20.72;100.00
40245;BME280;25963;42.694;23.600;2023-06-04T07:52:42;95557.25;;;21.01;100.00
40245;BME280;25963;42.694;23.600;2023-06-04T07:55:08;95567.31;;;21.34;100.00
40245;BME280;25963;42.694;23.600;2023-06-04T07:57:34;95565.78;;;21.13;100.00
40245;BME280;25963;42.694;23.600;2023-06-04T08:00:00;95552.94;;;21.10;100.00
40245;BME280;25963;42.694;23.600;2023-06-04T08:02:31;95582.13;;;21.11;100.00
40245;BME280;25963;42.694;23.600;2023-06-04T08:05:05;95557.25;;;20.90;100.00
40245;BME280;25963;42.694;23.600;2023-06-04T08:07:36;95556.81;;;20.47;100.00
40245;BME280;25963;42.694;23.600;2023-06-04T08:10:11;95563.00;;;20.53;100.00
40245;BME280;25963;42.694;23.600;2023-06-04T08:13:03;95551.72;;;20.36;100.00
40245;BME280;25963;42.694;23.600;2023-06-04T08:15:29;95555.75;;;20.54;100.00
40245;BME280;25963;42.694;23.600;2023-06-04T08:17:55;95554.66;;;20.19;100.00
40245;BME280;25963;42.694;23.600;2023-06-04T08:20:23;95572.06;;;20.37;100.00
40245;BME280;25963;42.694;23.600;2023-06-04T08:22:55;95545.56;;;20.56;100.00
40245;BME280;25963;42.694;23.600;2023-06-04T08:25:23;95568.47;;;21.18;100.00
40245;BME280;25963;42.694;23.600;2023-06-04T08:27:57;95537.53;;;21.31;100.00
40245;BME280;25963;42.694;23.600;2023-06-04T08:30:31;95555.88;;;21.08;100.00
40245;BME280;25963;42.694;23.600;2023-06-04T08:33:04;95574.97;;;20.86;100.00
40245;BME280;25963;42.694;23.600;2023-06-04T08:35:30;95563.25;;;20.62;100.00
40245;BME280;25963;42.694;23.600;2023-06-04T08:37:55;95591.56;;;20.98;100.00
40245;BME280;25963;42.694;23.600;2023-06-04T08:40:30;95568.13;;;21.30;100.00
40245;BME280;25963;42.694;23.600;2023-06-04T08:42:59;95590.91;;;21.42;100.00
40245;BME280;25963;42.694;23.600;2023-06-04T08:48:37;95576.91;;;21.51;100.00
40245;BME280;25963;42.694;23.600;2023-06-04T08:51:13;95544.88;;;21.05;100.00
40245;BME280;25963;42.694;23.600;2023-06-04T08:53:48;95562.31;;;21.12;100.00
40245;BME280;25963;42.694;23.600;2023-06-04T08:56:19;95589.88;;;21.28;100.00
40245;BME280;25963;42.694;23.600;2023-06-04T08:58:46;95603.78;;;21.35;100.00
40245;BME280;25963;42.694;23.600;2023-06-04T09:01:18;95603.25;;;21.43;100.00
40245;BME280;25963;42.694;23.600;2023-06-04T09:03:49;95590.94;;;21.37;100.00
40245;BME280;25963;42.694;23.600;2023-06-04T09:06:15;95603.81;;;21.30;100.00
40245;BME280;25963;42.694;23.600;2023-06-04T09:08:43;95605.69;;;21.40;100.00
40245;BME280;25963;42.694;23.600;2023-06-04T09:11:13;95608.75;;;21.73;100.00
40245;BME280;25963;42.694;23.600;2023-06-04T09:13:40;95596.56;;;21.91;100.00
40245;BME280;25963;42.694;23.600;2023-06-04T09:16:10;95604.06;;;21.94;100.00
40245;BME280;25963;42.694;23.600;2023-06-04T09:18:42;95585.53;;;21.92;100.00
40245;BME280;25963;42.694;23.600;2023-06-04T09:21:09;95586.09;;;21.89;100.00
40245;BME280;25963;42.694;23.600;2023-06-04T09:23:47;95574.56;;;21.88;100.00
40245;BME280;25963;42.694;23.600;2023-06-04T09:26:13;95603.56;;;22.31;100.00
40245;BME280;25963;42.694;23.600;2023-06-04T09:28:46;95585.63;;;22.21;100.00
40245;BME280;25963;42.694;23.600;2023-06-04T09:31:20;95586.06;;;22.33;100.00
40245;BME280;25963;42.694;23.600;2023-06-04T09:33:52;95605.31;;;22.46;100.00
40245;BME280;25963;42.694;23.600;2023-06-04T09:36:17;95602.63;;;22.06;100.00
40245;BME280;25963;42.694;23.600;2023-06-04T09:38:43;95563.94;;;21.68;100.00
40245;BME280;25963;42.694;23.600;2023-06-04T09:41:25;95562.38;;;21.62;100.00
40245;BME280;25963;42.694;23.600;2023-06-04T09:43:59;95589.31;;;21.91;100.00
40245;BME280;25963;42.694;23.600;2023-06-04T09:46:25;95594.44;;;21.87;100.00
40245;BME280;25963;42.694;23.600;2023-06-04T09:48:59;95613.38;;;21.62;100.00
40245;BME280;25963;42.694;23.600;2023-06-04T09:54:15;95603.53;;;21.32;100.00
40245;BME280;25963;42.694;23.600;2023-06-04T09:56:41;95595.22;;;21.33;100.00
40245;BME280;25963;42.694;23.600;2023-06-04T09:59:14;95610.78;;;21.26;100.00
40245;BME280;25963;42.694;23.600;2023-06-04T10:01:49;95632.78;;;21.43;100.00
40245;BME280;25963;42.694;23.600;2023-06-04T10:04:24;95568.78;;;20.96;100.00
40245;BME280;25963;42.694;23.600;2023-06-04T10:06:55;95584.28;;;21.14;100.00
40245;BME280;25963;42.694;23.600;2023-06-04T10:09:22;95594.16;;;21.39;100.00
40245;BME280;25963;42.694;23.600;2023-06-04T10:11:56;95629.72;;;21.65;100.00
40245;BME280;25963;42.694;23.600;2023-06-04T10:17:28;95614.28;;;21.92;100.00
40245;BME280;25963;42.694;23.600;2023-06-04T10:19:54;95609.38;;;22.04;100.00
40245;BME280;25963;42.694;23.600;2023-06-04T10:22:24;95595.50;;;21.86;100.00
40245;BME280;25963;42.694;23.600;2023-06-04T10:24:50;95582.88;;;21.37;100.00
40245;BME280;25963;42.694;23.600;2023-06-04T10:27:19;95599.50;;;21.29;100.00
40245;BME280;25963;42.694;23.600;2023-06-04T10:29:46;95620.69;;;21.46;100.00
40245;BME280;25963;42.694;23.600;2023-06-04T10:32:11;95600.59;;;21.33;100.00
40245;BME280;25963;42.694;23.600;2023-06-04T10:34:40;95598.94;;;21.48;100.00
40245;BME280;25963;42.694;23.600;2023-06-04T10:37:21;95602.94;;;21.50;100.00
40245;BME280;25963;42.694;23.600;2023-06-04T10:39:53;95607.13;;;21.77;100.00
40245;BME280;25963;42.694;23.600;2023-06-04T10:42:20;95619.22;;;21.74;100.00
40245;BME280;25963;42.694;23.600;2023-06-04T10:44:48;95603.75;;;21.51;100.00
40245;BME280;25963;42.694;23.600;2023-06-04T10:49:46;95600.66;;;21.03;100.00
40245;BME280;25963;42.694;23.600;2023-06-04T10:52:11;95608.75;;;20.97;100.00
40245;BME280;25963;42.694;23.600;2023-06-04T10:54:37;95617.59;;;20.88;100.00
40245;BME280;25963;42.694;23.600;2023-06-04T10:57:16;95612.28;;;20.62;100.00
40245;BME280;25963;42.694;23.600;2023-06-04T10:59:56;95598.59;;;20.74;100.00
40245;BME280;25963;42.694;23.600;2023-06-04T11:02:22;95599.16;;;20.76;100.00
40245;BME280;25963;42.694;23.600;2023-06-04T11:05:04;95615.47;;;20.95;100.00
40245;BME280;25963;42.694;23.600;2023-06-04T11:07:45;95621.38;;;20.82;100.00
40245;BME280;25963;42.694;23.600;2023-06-04T11:10:12;95618.94;;;20.90;100.00
40245;BME280;25963;42.694;23.600;2023-06-04T11:12:46;95623.78;;;20.88;100.00
40245;BME280;25963;42.694;23.600;2023-06-04T11:15:13;95606.56;;;21.10;100.00
40245;BME280;25963;42.694;23.600;2023-06-04T11:17:52;95606.81;;;21.13;100.00
40245;BME280;25963;42.694;23.600;2023-06-04T11:20:21;95619.28;;;21.54;100.00
40245;BME280;25963;42.694;23.600;2023-06-04T11:22:54;95618.97;;;21.65;100.00
40245;BME280;25963;42.694;23.600;2023-06-04T11:25:24;95622.72;;;21.75;100.00
40245;BME280;25963;42.694;23.600;2023-06-04T11:27:55;95612.16;;;21.88;100.00
40245;BME280;25963;42.694;23.600;2023-06-04T11:30:24;95606.78;;;21.88;100.00
40245;BME280;25963;42.694;23.600;2023-06-04T11:32:59;95627.38;;;22.03;100.00
40245;BME280;25963;42.694;23.600;2023-06-04T11:35:41;95599.06;;;22.21;100.00
40245;BME280;25963;42.694;23.600;2023-06-04T11:38:20;95611.69;;;22.26;100.00
40245;BME280;25963;42.694;23.600;2023-06-04T11:40:59;95619.06;;;22.05;100.00
40245;BME280;25963;42.694;23.600;2023-06-04T11:43:28;95629.84;;;22.39;100.00
40245;BME280;25963;42.694;23.600;2023-06-04T11:45:54;95611.22;;;22.48;100.00
40245;BME280;25963;42.694;23.600;2023-06-04T11:48:20;95635.16;;;22.78;100.00
40245;BME280;25963;42.694;23.600;2023-06-04T11:50:46;95611.47;;;22.81;100.00
40245;BME280;25963;42.694;23.600;2023-06-04T11:53:11;95618.38;;;22.92;100.00
40245;BME280;25963;42.694;23.600;2023-06-04T11:55:38;95624.41;;;22.78;100.00
40245;BME280;25963;42.694;23.600;2023-06-04T11:58:04;95606.78;;;22.96;100.00
40245;BME280;25963;42.694;23.600;2023-06-04T12:00:30;95600.25;;;22.73;100.00
40245;BME280;25963;42.694;23.600;2023-06-04T12:02:56;95609.03;;;23.13;100.00
40245;BME280;25963;42.694;23.600;2023-06-04T12:05:29;95621.97;;;23.11;100.00
40245;BME280;25963;42.694;23.600;2023-06-04T12:08:07;95618.16;;;23.12;100.00
40245;BME280;25963;42.694;23.600;2023-06-04T12:10:43;95586.56;;;22.99;100.00
40245;BME280;25963;42.694;23.600;2023-06-04T12:13:12;95621.38;;;23.14;100.00
40245;BME280;25963;42.694;23.600;2023-06-04T12:15:38;95617.28;;;23.22;100.00
40245;BME280;25963;42.694;23.600;2023-06-04T12:18:03;95609.78;;;22.90;100.00
40245;BME280;25963;42.694;23.600;2023-06-04T12:20:55;95630.34;;;23.34;100.00
40245;BME280;25963;42.694;23.600;2023-06-04T12:23:21;95594.22;;;22.87;100.00
40245;BME280;25963;42.694;23.600;2023-06-04T12:25:50;95607.31;;;22.98;100.00
40245;BME280;25963;42.694;23.600;2023-06-04T12:28:19;95618.94;;;22.89;100.00
40245;BME280;25963;42.694;23.600;2023-06-04T12:30:44;95614.31;;;22.65;100.00
40245;BME280;25963;42.694;23.600;2023-06-04T12:33:11;95611.72;;;22.84;100.00
40245;BME280;25963;42.694;23.600;2023-06-04T12:35:37;95631.13;;;23.34;100.00
40245;BME280;25963;42.694;23.600;2023-06-04T12:38:05;95596.47;;;23.76;100.00
40245;BME280;25963;42.694;23.600;2023-06-04T12:40:31;95612.69;;;23.71;100.00
40245;BME280;25963;42.694;23.600;2023-06-04T12:42:56;95605.84;;;23.97;100.00
40245;BME280;25963;42.694;23.600;2023-06-04T12:45:22;95603.25;;;23.68;100.00
40245;BME280;25963;42.694;23.600;2023-06-04T12:47:47;95611.09;;;24.07;100.00
40245;BME280;25963;42.694;23.600;2023-06-04T12:50:13;95603.09;;;24.02;100.00
40245;BME280;25963;42.694;23.600;2023-06-04T12:52:38;95591.16;;;24.08;100.00
40245;BME280;25963;42.694;23.600;2023-06-04T12:55:04;95607.63;;;23.64;100.00
40245;BME280;25963;42.694;23.600;2023-06-04T12:57:30;95602.69;;;23.71;100.00
40245;BME280;25963;42.694;23.600;2023-06-04T12:59:56;95589.88;;;23.39;100.00
40245;BME280;25963;42.694;23.600;2023-06-04T13:02:22;95594.59;;;23.04;100.00
40245;BME280;25963;42.694;23.600;2023-06-04T13:04:50;95567.88;;;22.84;100.00
40245;BME280;25963;42.694;23.600;2023-06-04T13:07:19;95616.00;;;23.14;100.00
40245;BME280;25963;42.694;23.600;2023-06-04T13:09:45;95606.97;;;23.05;100.00
40245;BME280;25963;42.694;23.600;2023-06-04T13:12:10;95593.41;;;22.86;100.00
40245;BME280;25963;42.694;23.600;2023-06-04T13:14:36;95607.19;;;22.50;100.00
40245;BME280;25963;42.694;23.600;2023-06-04T13:17:01;95604.59;;;22.69;100.00
40245;BME280;25963;42.694;23.600;2023-06-04T13:19:27;95622.09;;;22.67;100.00
40245;BME280;25963;42.694;23.600;2023-06-04T13:21:55;95618.34;;;22.68;100.00
40245;BME280;25963;42.694;23.600;2023-06-04T13:24:22;95607.75;;;22.47;100.00
40245;BME280;25963;42.694;23.600;2023-06-04T13:26:47;95598.19;;;22.65;100.00
40245;BME280;25963;42.694;23.600;2023-06-04T13:29:13;95609.63;;;22.76;100.00
40245;BME280;25963;42.694;23.600;2023-06-04T13:31:41;95591.44;;;22.68;100.00
40245;BME280;25963;42.694;23.600;2023-06-04T13:34:06;95600.09;;;23.18;100.00
40245;BME280;25963;42.694;23.600;2023-06-04T13:36:32;95599.47;;;23.02;100.00
40245;BME280;25963;42.694;23.600;2023-06-04T13:38:57;95587.72;;;23.17;100.00
40245;BME280;25963;42.694;23.600;2023-06-04T13:41:23;95580.75;;;23.16;100.00